Terminal Aerodrome Forecast
Issued by NWS Shreveport, LA

Home | Current Version | Previous Version | Text Only | Print | Product List | Glossary On
Versions: 1 2 3 4 5 6 7 8 9 10 11 12 13 14
000
FTUS44 KSHV 280500
TAFTXK
TAF
KTXK 280533Z 2806/2906 12004KT P6SM FEW250
     FM281400 16008KT P6SM SCT250
     FM281800 19012KT P6SM SCT250
     FM290000 17010KT P6SM FEW045 SCT250=

USA.gov is the U.S. government's official web portal to all federal, state and local government web resources and services.